createdAt,value
2022-09-16T00:01:35.161Z,16.08
2022-09-16T00:06:37.025Z,16.06
2022-09-16T00:11:38.889Z,16.04
2022-09-16T00:16:40.749Z,16.00
2022-09-16T00:21:42.765Z,15.94
2022-09-16T00:26:44.636Z,15.86
2022-09-16T00:31:46.648Z,15.80
2022-09-16T00:36:48.513Z,15.82
2022-09-16T00:41:50.668Z,15.80
2022-09-16T00:46:54.094Z,15.73
2022-09-16T00:52:05.781Z,15.73
2022-09-16T00:57:11.008Z,15.67
2022-09-16T01:02:17.918Z,15.59
2022-09-16T01:07:44.508Z,15.54
2022-09-16T01:12:49.838Z,15.52
2022-09-16T01:18:06.759Z,15.52
2022-09-16T01:23:56.511Z,15.44
2022-09-16T01:29:10.336Z,15.45
2022-09-16T01:34:36.839Z,15.48
2022-09-16T01:39:44.651Z,15.40
2022-09-16T01:45:03.191Z,15.38
2022-09-16T01:50:30.449Z,15.39
2022-09-16T01:55:46.889Z,15.36
2022-09-16T02:00:52.100Z,15.48
2022-09-16T02:05:58.631Z,15.54
2022-09-16T02:11:04.949Z,15.53
2022-09-16T02:16:39.761Z,15.59
2022-09-16T02:21:45.815Z,15.67
2022-09-16T02:26:56.602Z,15.74
2022-09-16T02:32:01.280Z,15.78
2022-09-16T02:37:08.385Z,15.72
2022-09-16T02:42:10.693Z,15.60
2022-09-16T02:47:31.676Z,15.53
2022-09-16T02:53:02.571Z,15.46
2022-09-16T02:58:07.953Z,15.48
2022-09-16T03:03:10.105Z,15.54
2022-09-16T03:08:11.990Z,15.54
2022-09-16T03:13:27.371Z,15.51
2022-09-16T03:18:41.315Z,15.55
2022-09-16T03:23:52.310Z,15.59
2022-09-16T03:29:09.851Z,15.62
2022-09-16T03:34:21.412Z,15.52
2022-09-16T03:39:23.399Z,15.47
2022-09-16T03:44:32.850Z,15.44
2022-09-16T03:49:35.554Z,15.43
2022-09-16T03:54:39.109Z,15.43
2022-09-16T03:59:42.120Z,15.40
2022-09-16T04:04:43.917Z,15.21
2022-09-16T04:09:45.817Z,15.04
2022-09-16T04:14:47.623Z,14.96
2022-09-16T04:19:50.071Z,15.01
2022-09-16T04:24:51.930Z,14.99
2022-09-16T04:29:53.711Z,14.86
2022-09-16T04:34:55.509Z,14.80
2022-09-16T04:40:01.104Z,14.86
2022-09-16T04:45:06.889Z,15.00
2022-09-16T04:50:09.854Z,14.94
2022-09-16T04:55:11.701Z,14.91
2022-09-16T05:00:13.976Z,14.94
2022-09-16T05:05:17.331Z,15.01
2022-09-16T05:10:19.248Z,15.03
2022-09-16T05:15:21.220Z,15.08
2022-09-16T05:20:23.335Z,15.13
2022-09-16T05:25:25.165Z,15.20
2022-09-16T05:30:26.983Z,15.26
2022-09-16T05:35:28.842Z,15.37
2022-09-16T05:40:30.713Z,15.45
2022-09-16T05:45:32.810Z,15.47
2022-09-16T05:50:34.675Z,15.43
2022-09-16T05:55:36.470Z,15.23
2022-09-16T06:00:38.250Z,15.04
2022-09-16T06:05:45.017Z,15.06
2022-09-16T06:10:47.559Z,14.97
2022-09-16T06:15:51.527Z,14.98
2022-09-16T06:20:53.653Z,15.03
2022-09-16T06:26:10.131Z,15.01
2022-09-16T06:31:14.858Z,14.93
2022-09-16T06:36:19.419Z,14.94
2022-09-16T06:41:22.295Z,14.88
2022-09-16T06:46:27.228Z,14.98
2022-09-16T06:51:31.365Z,15.03
2022-09-16T06:56:37.940Z,15.17
2022-09-16T07:01:40.330Z,15.16
2022-09-16T07:07:08.158Z,15.18
2022-09-16T07:12:05.120Z,15.41
2022-09-16T07:17:09.151Z,15.54
2022-09-16T07:22:11.618Z,15.52
2022-09-16T07:27:13.926Z,15.55
2022-09-16T07:32:15.887Z,15.64
2022-09-16T07:37:19.597Z,15.81
2022-09-16T07:42:23.691Z,15.87
2022-09-16T07:47:25.569Z,16.00
2022-09-16T07:52:29.537Z,16.04
2022-09-16T07:57:31.333Z,16.03
2022-09-16T08:02:33.197Z,16.09
2022-09-16T08:07:35.530Z,16.23
2022-09-16T08:12:37.370Z,16.32
2022-09-16T08:17:39.243Z,16.37
2022-09-16T08:22:41.078Z,16.65
2022-09-16T08:27:42.899Z,16.94
2022-09-16T08:32:44.792Z,17.33
2022-09-16T08:37:50.033Z,17.73
2022-09-16T08:43:16.603Z,18.18
2022-09-16T08:48:43.957Z,18.42
2022-09-16T08:53:45.692Z,18.39
2022-09-16T08:58:54.060Z,18.31
2022-09-16T09:03:56.530Z,18.27
2022-09-16T09:09:36.318Z,18.12
2022-09-16T09:15:00.459Z,17.43
2022-09-16T09:20:29.456Z,17.12
2022-09-16T09:25:49.122Z,17.13
2022-09-16T09:31:21.409Z,17.31
2022-09-16T09:36:32.109Z,17.44
2022-09-16T09:41:46.687Z,17.53
2022-09-16T09:46:54.661Z,17.55
2022-09-16T09:52:17.409Z,17.60
2022-09-16T09:57:25.226Z,17.63
2022-09-16T10:02:27.235Z,17.87
2022-09-16T10:07:29.474Z,18.24
2022-09-16T10:12:36.323Z,18.61
2022-09-16T10:17:38.210Z,18.83
2022-09-16T10:22:40.060Z,18.86
2022-09-16T10:27:42.130Z,19.04
2022-09-16T10:33:02.172Z,19.16
2022-09-16T10:38:17.510Z,19.12
2022-09-16T10:43:19.509Z,18.79
2022-09-16T10:48:26.462Z,18.07
2022-09-16T10:53:44.094Z,17.34
2022-09-16T10:58:46.604Z,16.85
2022-09-16T11:03:51.109Z,16.72
2022-09-16T11:09:08.191Z,16.70
2022-09-16T11:14:37.754Z,17.15
2022-09-16T11:20:01.222Z,17.80
2022-09-16T11:25:08.885Z,18.31
2022-09-16T11:30:18.165Z,18.29
2022-09-16T11:35:46.180Z,18.20
2022-09-16T11:41:03.891Z,17.94
2022-09-16T11:46:16.197Z,17.53
2022-09-16T11:51:51.149Z,17.72
2022-09-16T11:57:00.717Z,18.22
2022-09-16T12:02:39.740Z,18.32
2022-09-16T12:07:51.296Z,18.28
2022-09-16T12:12:59.126Z,18.52
2022-09-16T12:18:18.301Z,18.88
2022-09-16T12:23:26.791Z,19.23
2022-09-16T12:28:50.221Z,19.43
2022-09-16T12:34:12.034Z,19.17
2022-09-16T12:39:14.157Z,18.99
2022-09-16T12:44:34.394Z,19.28
2022-09-16T12:50:00.854Z,19.64
2022-09-16T12:55:38.210Z,19.91
2022-09-16T13:00:53.804Z,20.02
2022-09-16T13:05:58.504Z,19.88
2022-09-16T13:11:40.004Z,19.71
2022-09-16T13:16:37.118Z,19.66
2022-09-16T13:21:44.646Z,19.49
2022-09-16T13:26:46.895Z,19.16
2022-09-16T13:31:49.042Z,19.09
2022-09-16T13:36:51.002Z,19.17
2022-09-16T13:41:52.804Z,19.36
2022-09-16T13:46:54.927Z,19.29
2022-09-16T13:51:56.897Z,19.43
2022-09-16T13:57:21.750Z,19.52
2022-09-16T14:02:35.685Z,19.62
2022-09-16T14:07:58.274Z,19.48
2022-09-16T14:13:14.202Z,19.36
2022-09-16T14:18:20.756Z,18.86
2022-09-16T14:23:24.718Z,18.84
2022-09-16T14:28:28.483Z,18.99
2022-09-16T14:33:55.650Z,19.11
2022-09-16T14:39:14.155Z,19.39
2022-09-16T14:44:19.065Z,19.35
2022-09-16T14:49:22.093Z,19.40
2022-09-16T14:54:25.803Z,19.35
2022-09-16T14:59:42.030Z,19.45
2022-09-16T15:04:47.510Z,19.42
2022-09-16T15:10:00.221Z,19.52
2022-09-16T15:15:24.960Z,19.57
2022-09-16T15:20:31.840Z,19.23
2022-09-16T15:25:37.812Z,19.01
2022-09-16T15:30:49.111Z,18.81
2022-09-16T15:35:53.006Z,18.67
2022-09-16T15:41:03.236Z,18.36
2022-09-16T15:46:18.262Z,18.37
2022-09-16T15:51:44.963Z,18.32
2022-09-16T15:57:04.191Z,18.29
2022-09-16T16:02:24.436Z,18.16
2022-09-16T16:07:52.718Z,18.11
2022-09-16T16:12:55.579Z,17.91
2022-09-16T16:18:00.377Z,17.78
2022-09-16T16:23:02.387Z,17.76
2022-09-16T16:28:04.607Z,17.64
2022-09-16T16:33:09.216Z,17.50
2022-09-16T16:38:11.517Z,17.38
2022-09-16T16:43:13.356Z,17.34
2022-09-16T16:48:15.194Z,17.35
2022-09-16T16:53:16.990Z,17.09
2022-09-16T16:58:19.261Z,17.15
2022-09-16T17:03:22.764Z,17.05
2022-09-16T17:08:24.561Z,16.87
2022-09-16T17:13:26.348Z,16.83
2022-09-16T17:18:28.293Z,16.79
2022-09-16T17:23:30.401Z,16.83
2022-09-16T17:28:32.641Z,16.71
2022-09-16T17:33:34.474Z,16.67
2022-09-16T17:38:36.816Z,16.61
2022-09-16T17:43:39.663Z,16.58
2022-09-16T17:48:43.107Z,16.51
2022-09-16T17:53:46.177Z,16.45
2022-09-16T17:58:48.548Z,16.24
2022-09-16T18:03:52.822Z,16.09
2022-09-16T18:08:55.559Z,16.06
2022-09-16T18:14:00.138Z,16.03
2022-09-16T18:19:03.105Z,16.04
2022-09-16T18:24:11.346Z,15.98
2022-09-16T18:29:14.438Z,15.87
2022-09-16T18:34:17.919Z,15.75
2022-09-16T18:39:19.893Z,15.75
2022-09-16T18:44:26.272Z,15.70
2022-09-16T18:49:30.226Z,15.64
2022-09-16T18:54:33.521Z,15.62
2022-09-16T18:59:37.013Z,15.58
2022-09-16T19:04:43.047Z,15.47
2022-09-16T19:09:46.249Z,15.35
2022-09-16T19:14:48.410Z,15.31
2022-09-16T19:19:51.209Z,15.11
2022-09-16T19:24:54.467Z,15.07
2022-09-16T19:29:56.284Z,15.02
2022-09-16T19:34:58.070Z,14.95
2022-09-16T19:39:59.878Z,14.93
2022-09-16T19:45:01.867Z,15.06
2022-09-16T19:50:04.074Z,15.17
2022-09-16T19:55:06.485Z,15.23
2022-09-16T20:00:14.200Z,15.10
2022-09-16T20:05:16.007Z,15.05
2022-09-16T20:10:18.314Z,15.13
2022-09-16T20:15:20.102Z,15.04
2022-09-16T20:20:22.271Z,14.98
2022-09-16T20:25:24.041Z,14.88
2022-09-16T20:30:25.858Z,14.64
2022-09-16T20:35:27.814Z,14.61
2022-09-16T20:40:29.738Z,14.60
2022-09-16T20:45:31.780Z,14.51
2022-09-16T20:50:38.592Z,14.46
2022-09-16T20:55:40.440Z,14.40
2022-09-16T21:00:42.358Z,14.32
2022-09-16T21:05:44.161Z,14.26
2022-09-16T21:10:46.028Z,14.30
2022-09-16T21:15:58.716Z,14.26
2022-09-16T21:21:09.052Z,14.27
2022-09-16T21:26:13.068Z,14.34
2022-09-16T21:31:16.172Z,14.39
2022-09-16T21:36:19.067Z,14.40
2022-09-16T21:41:22.452Z,14.44
2022-09-16T21:46:29.636Z,14.46
2022-09-16T21:51:35.472Z,14.42
2022-09-16T21:56:39.271Z,14.39
2022-09-16T22:01:41.157Z,14.33
2022-09-16T22:06:43.146Z,14.36
2022-09-16T22:11:45.049Z,14.25
2022-09-16T22:16:46.966Z,14.14
2022-09-16T22:21:51.105Z,14.06
2022-09-16T22:26:52.976Z,13.99
2022-09-16T22:31:54.766Z,13.97
2022-09-16T22:36:56.539Z,13.91
2022-09-16T22:41:58.306Z,13.85
2022-09-16T22:47:00.563Z,13.85
2022-09-16T22:52:02.735Z,13.81
2022-09-16T22:57:04.548Z,13.75
2022-09-16T23:02:06.485Z,13.70
2022-09-16T23:07:10.243Z,13.64
2022-09-16T23:12:15.996Z,13.54
2022-09-16T23:17:17.853Z,13.52
2022-09-16T23:22:19.652Z,13.45
2022-09-16T23:27:21.452Z,13.41
2022-09-16T23:32:23.243Z,13.35
2022-09-16T23:37:25.097Z,13.29
2022-09-16T23:42:27.646Z,13.29
2022-09-16T23:47:29.522Z,13.26
2022-09-16T23:52:31.393Z,13.26
2022-09-16T23:57:33.207Z,13.23
